Terminal Aerodrome Forecast
Issued by NWS

Home | Current Version | Previous Version | Text Only | Print | Product List | Glossary On
Versions: 1 2 3 4 5 6 7 8 9 10 11 12 13 14 15 16
000
FTUS41 KPBZ 221001 AAA
TAFZZV
TAF AMD
KZZV 221001Z 2210/2306 25005KT P6SM SKC
      TEMPO 2210/2212 5SM BR
     FM221700 26012G22KT P6SM VCSH BKN060
     FM222000 30012G22KT P6SM SCT070
     FM222300 34005KT P6SM SKC=

USA.gov is the U.S. government's official web portal to all federal, state and local government web resources and services.